This is the latest recevied weather packets stored in our database for station/object W9GWP. If no packets are shown the sender has not sent any weather packets the latest 10 day(s).
| Time | Temp. | Humidity | Pressure | Rain* | Wind** | Luminosity | Snow |
|---|---|---|---|---|---|---|---|
| 1777901931 | 16.67° C | 54% | 1031.9 hPa | 0 mm | - | 267 W/m² | - |
| 1777901029 | 16.11° C | 56% | 1032.1 hPa | 0 mm | - | 213 W/m² | - |
| 1777900126 | 15° C | 60% | 1032.4 hPa | 0 mm | - | 192 W/m² | - |
| 1777899223 | 15° C | 60% | 1032.4 hPa | 0 mm | - | 148 W/m² | - |
| 1777898320 | 13.89° C | 64% | 1032.5 hPa | 0 mm | - | 114 W/m² | - |
| 1777897417 | 13.89° C | 66% | 1032.4 hPa | 0 mm | - | 50 W/m² | - |
| 1777896512 | 12.78° C | 69% | 1032.4 hPa | 0 mm | - | 42 W/m² | - |
| 1777895610 | 11.67° C | 72% | 1032.4 hPa | 0 mm | - | 34 W/m² | - |
| 1777894708 | 10.56° C | 75% | 1032.3 hPa | 0 mm | - | 28 W/m² | - |
| 1777893804 | 9.44° C | 80% | 1032.3 hPa | 0 mm | - | 18 W/m² | - |
| 1777892899 | 8.89° C | 81% | 1032.4 hPa | 0 mm | - | 9 W/m² | - |
| 1777891994 | 8.89° C | 82% | 1032.3 hPa | 0 mm | - | 2 W/m² | - |
| 1777891089 | 8.89° C | 82% | 1032.6 hPa | 0 mm | - | 0 W/m² | - |
| 1777890188 | 8.33° C | 83% | 1032.4 hPa | 0 mm | - | 0 W/m² | - |
| 1777889286 | 8.33° C | 84% | 1032.5 hPa | 0 mm | - | 0 W/m² | - |
| 1777888381 | 8.33° C | 85% | 1032.6 hPa | 0 mm | - | 0 W/m² | - |
| 1777887478 | 8.33° C | 85% | 1032.7 hPa | 0 mm | - | 0 W/m² | - |
| 1777886577 | 8.89° C | 84% | 1032.7 hPa | 0 mm | - | 0 W/m² | - |
| 1777885678 | 8.33° C | 86% | 1032.7 hPa | 0 mm | - | 0 W/m² | - |
| 1777884775 | 7.78° C | 87% | 1032.3 hPa | 0 mm | - | 0 W/m² | - |
| 1777883871 | 8.33° C | 86% | 1032.6 hPa | 0 mm | - | 0 W/m² | - |
| 1777882971 | 8.33° C | 85% | 1032.4 hPa | 0 mm | - | 0 W/m² | - |
| 1777882067 | 9.44° C | 83% | 1032.5 hPa | 0 mm | - | 0 W/m² | - |
| 1777881163 | 9.44° C | 82% | 1032.8 hPa | 0 mm | - | 0 W/m² | - |
| 1777880263 | 10° C | 81% | 1033.1 hPa | 0 mm | - | 0 W/m² | - |
* Rain latest hour (hover to see other rain measurements)
** Current wind speed in m/s (hover to see current wind gust speed)